Montezuma, New Mexico
Current Conditions -  °F | °C
As of 12:53 PM on Wednesday 26 Nov 2014 (Local Time) from KLVS Reporting Station
Clear Clear  
Wind Chill: 56°   Ceiling: Unl
Heat Index: 56°   Visibility: 10mi
Dew Point: 20°   Wind: 8mph
Humidity: 25%   Direction: 210°SSW
Pressure: 30.25"   Gusts: NA
Location:  35.65°N, 105.28°W
Report Text: KLVS 261953Z AUTO 21007KT 10SM CLR 13/M07 A3025 RMK AO2 SLP206 T01331067
Loading
Personal Weather Stations






























Interactive Weather Map New forecast layout! Learn more

10-Day Weather Forecast

Advertisements
Track Severe Weather on mobile